TimeAKDT,TemperatureF,Dew PointF,Humidity,Sea Level PressureIn,VisibilityMPH,Wind Direction,Wind SpeedMPH,Gust SpeedMPH,PrecipitationIn,Events,Conditions,WindDirDegrees,DateUTC
12:53 AM,42.1,36.0,79,30.49,10.0,NW,3.5,-,N/A,,Overcast,320,2013-05-20 08:53:00
1:53 AM,41.0,36.0,82,30.48,10.0,WNW,4.6,-,N/A,,Overcast,300,2013-05-20 09:53:00
2:53 AM,41.0,36.0,82,30.47,10.0,WNW,4.6,-,N/A,,Overcast,300,2013-05-20 10:53:00
3:53 AM,39.9,36.0,86,30.45,10.0,NW,4.6,-,N/A,,Overcast,310,2013-05-20 11:53:00
4:53 AM,41.0,35.1,79,30.44,10.0,NW,6.9,-,N/A,,Overcast,310,2013-05-20 12:53:00
5:53 AM,41.0,34.0,76,30.43,10.0,NW,5.8,-,N/A,,Overcast,320,2013-05-20 13:53:00
5:56 AM,42.8,33.8,70,30.42,10.0,NW,6.9,-,N/A,,Overcast,320,2013-05-20 13:56:00
6:53 AM,42.1,30.9,65,30.41,10.0,NW,10.4,-,N/A,,Overcast,320,2013-05-20 14:53:00
7:53 AM,44.1,32.0,63,30.39,10.0,NW,11.5,16.1,N/A,,Overcast,310,2013-05-20 15:53:00
8:53 AM,45.0,33.1,63,30.38,10.0,NW,11.5,19.6,N/A,,Overcast,310,2013-05-20 16:53:00
9:53 AM,46.0,33.1,61,30.36,10.0,NW,12.7,-,N/A,,Overcast,320,2013-05-20 17:53:00
10:53 AM,46.9,34.0,61,30.34,10.0,NW,11.5,-,N/A,,Mostly Cloudy,320,2013-05-20 18:53:00
11:53 AM,48.0,33.1,56,30.33,10.0,NW,13.8,-,0.00,Rain,Light Rain,320,2013-05-20 19:53:00
12:53 PM,48.9,33.1,54,30.31,10.0,NW,12.7,-,0.00,,Mostly Cloudy,320,2013-05-20 20:53:00
1:53 PM,50.0,33.1,52,30.29,10.0,NW,15.0,-,N/A,,Mostly Cloudy,320,2013-05-20 21:53:00
2:53 PM,48.9,36.0,61,30.27,10.0,NW,17.3,-,N/A,,Mostly Cloudy,320,2013-05-20 22:53:00
3:53 PM,50.0,34.0,54,30.26,10.0,NNW,17.3,21.9,N/A,,Mostly Cloudy,330,2013-05-20 23:53:00
4:53 PM,51.1,34.0,52,30.25,10.0,NW,13.8,18.4,N/A,,Mostly Cloudy,320,2013-05-21 00:53:00
5:53 PM,51.1,35.1,54,30.22,10.0,NW,11.5,18.4,N/A,,Scattered Clouds,310,2013-05-21 01:53:00
6:53 PM,50.0,34.0,54,30.21,10.0,NW,12.7,-,N/A,,Scattered Clouds,310,2013-05-21 02:53:00
7:53 PM,48.9,34.0,56,30.19,10.0,NW,10.4,-,N/A,,Mostly Cloudy,310,2013-05-21 03:53:00
8:53 PM,48.0,34.0,58,30.19,10.0,NW,8.1,-,N/A,,Mostly Cloudy,310,2013-05-21 04:53:00
9:53 PM,46.9,34.0,61,30.17,10.0,WNW,9.2,-,N/A,,Overcast,300,2013-05-21 05:53:00
10:53 PM,46.9,34.0,61,30.16,10.0,NW,10.4,-,N/A,,Mostly Cloudy,310,2013-05-21 06:53:00
11:53 PM,46.9,33.1,59,30.15,10.0,WNW,11.5,-,N/A,,Overcast,300,2013-05-21 07:53:00